createdAt,value
2022-08-08T00:02:03.182Z,102034.47
2022-08-08T00:04:38.227Z,102028.75
2022-08-08T00:07:22.908Z,102030.75
2022-08-08T00:10:07.203Z,102035.19
2022-08-08T00:12:48.390Z,102032.56
2022-08-08T00:15:56.413Z,102036.53
2022-08-08T00:18:22.021Z,102038.66
2022-08-08T00:20:53.883Z,102034.25
2022-08-08T00:23:43.069Z,102043.94
2022-08-08T00:26:21.653Z,102051.94
2022-08-08T00:28:55.449Z,102048.78
2022-08-08T00:32:20.527Z,102053.84
2022-08-08T00:34:57.572Z,102046.22
2022-08-08T00:37:47.538Z,102055.31
2022-08-08T00:41:07.589Z,102055.50
2022-08-08T00:44:00.811Z,102059.81
2022-08-08T00:47:04.482Z,102066.16
2022-08-08T00:50:09.301Z,102051.50
2022-08-08T00:52:54.139Z,102063.03
2022-08-08T00:55:53.061Z,102057.88
2022-08-08T00:58:54.499Z,102056.03
2022-08-08T01:01:39.018Z,102057.03
2022-08-08T01:04:29.830Z,102060.59
2022-08-08T01:07:55.853Z,102057.25
2022-08-08T01:11:13.578Z,102065.97
2022-08-08T01:14:16.535Z,102059.03
2022-08-08T01:17:51.524Z,102058.47
2022-08-08T01:20:44.211Z,102055.22
2022-08-08T01:24:05.603Z,102052.69
2022-08-08T01:27:10.869Z,102051.19
2022-08-08T01:30:23.062Z,102053.72
2022-08-08T01:33:43.243Z,102056.53
2022-08-08T01:36:55.680Z,102058.56
2022-08-08T01:39:36.041Z,102064.88
2022-08-08T01:42:17.767Z,102071.06
2022-08-08T01:45:04.067Z,102074.75
2022-08-08T01:48:14.380Z,102069.59
2022-08-08T01:50:59.057Z,102070.94
2022-08-08T01:55:16.386Z,102074.50
2022-08-08T01:56:46.937Z,102082.06
2022-08-08T02:00:02.948Z,102078.78
2022-08-08T02:02:41.461Z,102075.66
2022-08-08T02:05:33.901Z,102082.75
2022-08-08T02:08:23.151Z,102079.53
2022-08-08T02:11:22.991Z,102077.09
2022-08-08T02:13:58.551Z,102072.91
2022-08-08T02:16:35.705Z,102072.22
2022-08-08T02:19:41.434Z,102075.81
2022-08-08T02:22:27.961Z,102083.72
2022-08-08T02:25:11.783Z,102084.84
2022-08-08T02:27:55.980Z,102079.97
2022-08-08T02:30:35.991Z,102092.94
2022-08-08T02:33:15.424Z,102092.94
2022-08-08T02:36:16.509Z,102096.59
2022-08-08T02:38:56.117Z,102101.03
2022-08-08T02:42:05.746Z,102103.66
2022-08-08T02:45:21.338Z,102102.41
2022-08-08T02:48:25.726Z,102103.66
2022-08-08T02:51:46.327Z,102102.88
2022-08-08T02:54:45.903Z,102113.41
2022-08-08T02:57:52.283Z,102109.09
2022-08-08T03:00:33.487Z,102113.50
2022-08-08T03:05:00.298Z,102122.53
2022-08-08T03:07:19.637Z,102121.69
2022-08-08T03:10:44.786Z,102115.69
2022-08-08T03:16:02.228Z,102122.81
2022-08-08T03:16:48.958Z,102121.78
2022-08-08T03:19:51.920Z,102128.66
2022-08-08T03:22:38.712Z,102134.09
2022-08-08T03:25:17.786Z,102133.25
2022-08-08T03:27:56.355Z,102132.38
2022-08-08T03:30:25.965Z,102124.31
2022-08-08T03:33:54.700Z,102134.09
2022-08-08T03:36:00.769Z,102147.16
2022-08-08T03:38:54.276Z,102147.97
2022-08-08T03:42:12.493Z,102140.19
2022-08-08T03:44:07.410Z,102129.47
2022-08-08T03:46:47.158Z,102138.78
2022-08-08T03:49:59.091Z,102141.53
2022-08-08T03:52:13.175Z,102148.38
2022-08-08T03:55:02.035Z,102152.22
2022-08-08T03:58:32.274Z,102155.69
2022-08-08T04:00:25.987Z,102163.22
2022-08-08T04:03:00.525Z,102162.09
2022-08-08T04:05:30.305Z,102165.53
2022-08-08T04:08:00.727Z,102164.16
2022-08-08T04:10:31.921Z,102172.97
2022-08-08T04:13:03.730Z,102169.22
2022-08-08T04:16:03.576Z,102163.19
2022-08-08T04:18:38.219Z,102179.66
2022-08-08T04:21:11.102Z,102180.19
2022-08-08T04:24:05.756Z,102172.00
2022-08-08T04:26:35.531Z,102181.88
2022-08-08T04:29:15.029Z,102180.56
2022-08-08T04:31:58.771Z,102187.22
2022-08-08T04:34:32.370Z,102180.16
2022-08-08T04:37:12.161Z,102179.94
2022-08-08T04:40:03.905Z,102179.56
2022-08-08T04:42:31.675Z,102180.22
2022-08-08T04:45:02.279Z,102184.19
2022-08-08T04:47:30.850Z,102185.88
2022-08-08T04:50:04.780Z,102196.44
2022-08-08T04:52:33.990Z,102186.63
2022-08-08T04:55:04.369Z,102194.31
2022-08-08T04:57:34.639Z,102195.06
2022-08-08T05:00:06.851Z,102184.44
2022-08-08T05:02:35.234Z,102190.56
2022-08-08T05:05:03.452Z,102192.03
2022-08-08T05:07:35.294Z,102190.25
2022-08-08T05:10:12.832Z,102186.47
2022-08-08T05:12:42.982Z,102186.19
2022-08-08T05:16:36.415Z,102185.97
2022-08-08T05:18:19.214Z,102191.88
2022-08-08T05:20:52.259Z,102195.06
2022-08-08T05:23:21.626Z,102205.31
2022-08-08T05:25:50.070Z,102197.84
2022-08-08T05:28:48.448Z,102207.25
2022-08-08T05:31:19.180Z,102212.97
2022-08-08T05:33:55.423Z,102209.91
2022-08-08T05:36:28.225Z,102215.72
2022-08-08T05:38:59.580Z,102198.22
2022-08-08T05:41:28.013Z,102208.03
2022-08-08T05:44:04.856Z,102207.53
2022-08-08T05:46:36.514Z,102213.31
2022-08-08T05:49:11.131Z,102208.47
2022-08-08T05:51:49.194Z,102211.34
2022-08-08T05:54:28.850Z,102211.75
2022-08-08T05:57:15.389Z,102212.22
2022-08-08T05:59:59.937Z,102213.47
2022-08-08T06:02:54.951Z,102214.63
2022-08-08T06:05:34.197Z,102213.06
2022-08-08T06:08:20.468Z,102233.13
2022-08-08T06:10:54.578Z,102234.47
2022-08-08T06:13:23.510Z,102230.97
2022-08-08T06:15:56.140Z,102234.09
2022-08-08T06:18:27.320Z,102243.34
2022-08-08T06:20:57.753Z,102237.19
2022-08-08T06:23:52.480Z,102240.44
2022-08-08T06:26:43.270Z,102236.19
2022-08-08T06:29:18.681Z,102246.50
2022-08-08T06:32:10.299Z,102238.56
2022-08-08T06:34:56.394Z,102244.34
2022-08-08T06:37:40.263Z,102248.38
2022-08-08T06:40:15.912Z,102243.47
2022-08-08T06:42:56.348Z,102246.22
2022-08-08T06:45:25.320Z,102243.34
2022-08-08T06:48:01.031Z,102248.03
2022-08-08T06:50:33.565Z,102247.44
2022-08-08T06:53:10.035Z,102249.97
2022-08-08T06:55:43.185Z,102257.38
2022-08-08T06:58:14.222Z,102257.53
2022-08-08T07:00:47.955Z,102264.13
2022-08-08T07:04:35.969Z,102260.13
2022-08-08T07:06:26.903Z,102262.91
2022-08-08T07:08:58.875Z,102262.03
2022-08-08T07:11:45.958Z,102264.69
2022-08-08T07:14:19.248Z,102257.97
2022-08-08T07:16:54.307Z,102264.69
2022-08-08T07:19:31.724Z,102274.22
2022-08-08T07:22:18.423Z,102265.34
2022-08-08T07:24:53.272Z,102266.94
2022-08-08T07:27:27.908Z,102263.88
2022-08-08T07:30:08.311Z,102270.09
2022-08-08T07:32:42.176Z,102269.38
2022-08-08T07:35:11.208Z,102266.06
2022-08-08T07:37:55.749Z,102270.72
2022-08-08T07:40:34.396Z,102275.38
2022-08-08T07:43:08.621Z,102266.16
2022-08-08T07:46:04.777Z,102263.63
2022-08-08T07:48:29.625Z,102271.94
2022-08-08T07:51:01.171Z,102271.13
2022-08-08T07:54:01.486Z,102276.97
2022-08-08T07:56:36.925Z,102272.94
2022-08-08T07:59:11.267Z,102272.13
2022-08-08T08:02:36.761Z,102274.38
2022-08-08T08:04:40.005Z,102275.72
2022-08-08T08:07:11.015Z,102279.97
2022-08-08T08:09:42.524Z,102282.50
2022-08-08T08:12:31.382Z,102282.31
2022-08-08T08:15:05.345Z,102281.19
2022-08-08T08:17:44.138Z,102281.56
2022-08-08T08:20:19.046Z,102287.88
2022-08-08T08:22:47.641Z,102283.56
2022-08-08T08:25:19.381Z,102286.44
2022-08-08T08:28:05.372Z,102287.84
2022-08-08T08:30:39.059Z,102280.84
2022-08-08T08:33:11.210Z,102287.00
2022-08-08T08:36:19.627Z,102291.63
2022-08-08T08:38:28.213Z,102292.47
2022-08-08T08:40:58.360Z,102296.06
2022-08-08T08:43:29.098Z,102289.94
2022-08-08T08:45:57.972Z,102293.03
2022-08-08T08:48:32.434Z,102290.56
2022-08-08T08:51:03.263Z,102300.94
2022-08-08T08:53:58.917Z,102290.44
2022-08-08T08:56:28.458Z,102295.09
2022-08-08T08:58:58.350Z,102295.63
2022-08-08T09:01:34.328Z,102297.31
2022-08-08T09:04:09.986Z,102290.72
2022-08-08T09:06:49.980Z,102295.78
2022-08-08T09:09:37.520Z,102288.34
2022-08-08T09:12:11.472Z,102293.22
2022-08-08T09:14:45.007Z,102299.09
2022-08-08T09:17:18.933Z,102296.59
2022-08-08T09:22:02.628Z,102295.34
2022-08-08T09:22:39.490Z,102299.69
2022-08-08T09:25:09.709Z,102301.91
2022-08-08T09:27:56.410Z,102305.00
2022-08-08T09:30:28.230Z,102291.13
2022-08-08T09:33:54.180Z,102290.94
2022-08-08T09:35:48.962Z,102291.56
2022-08-08T09:38:32.025Z,102297.75
2022-08-08T09:41:06.386Z,102291.13
2022-08-08T09:44:06.217Z,102294.63
2022-08-08T09:46:35.942Z,102296.03
2022-08-08T09:49:41.419Z,102299.28
2022-08-08T09:52:06.261Z,102295.50
2022-08-08T09:54:42.149Z,102297.47
2022-08-08T09:57:17.503Z,102293.84
2022-08-08T10:00:27.583Z,102289.50
2022-08-08T10:02:42.018Z,102287.25
2022-08-08T10:05:25.296Z,102293.03
2022-08-08T10:08:00.329Z,102292.03
2022-08-08T10:10:31.675Z,102295.00
2022-08-08T10:13:13.826Z,102286.06
2022-08-08T10:16:00.585Z,102293.91
2022-08-08T10:18:30.975Z,102298.00
2022-08-08T10:21:22.867Z,102288.47
2022-08-08T10:23:55.551Z,102301.94
2022-08-08T10:26:51.971Z,102294.94
2022-08-08T10:29:23.594Z,102292.13
2022-08-08T10:32:15.930Z,102289.75
2022-08-08T10:34:58.466Z,102294.00
2022-08-08T10:37:31.803Z,102299.72
2022-08-08T10:40:16.561Z,102298.34
2022-08-08T10:42:46.454Z,102304.94
2022-08-08T10:45:16.472Z,102297.91
2022-08-08T10:47:55.382Z,102297.91
2022-08-08T10:50:33.116Z,102299.59
2022-08-08T10:53:07.582Z,102297.50
2022-08-08T10:55:46.425Z,102298.22
2022-08-08T10:58:16.010Z,102294.69
2022-08-08T11:00:53.365Z,102300.59
2022-08-08T11:04:00.321Z,102294.81
2022-08-08T11:06:31.543Z,102305.22
2022-08-08T11:09:09.616Z,102297.63
2022-08-08T11:12:04.946Z,102292.59
2022-08-08T11:14:27.701Z,102303.09
2022-08-08T11:16:55.976Z,102300.41
2022-08-08T11:19:30.214Z,102296.09
2022-08-08T11:22:00.319Z,102297.75
2022-08-08T11:24:36.020Z,102293.41
2022-08-08T11:27:19.303Z,102301.56
2022-08-08T11:29:58.359Z,102298.31
2022-08-08T11:32:39.815Z,102300.72
2022-08-08T11:35:27.868Z,102300.56
2022-08-08T11:38:35.979Z,102307.56
2022-08-08T11:40:52.699Z,102300.00
2022-08-08T11:43:24.444Z,102303.25
2022-08-08T11:46:09.510Z,102310.53
2022-08-08T11:48:44.848Z,102302.13
2022-08-08T11:51:29.993Z,102299.88
2022-08-08T11:54:04.288Z,102300.59
2022-08-08T11:56:35.030Z,102304.09
2022-08-08T11:59:10.819Z,102310.41
2022-08-08T12:01:39.715Z,102308.56
2022-08-08T12:04:09.903Z,102314.75
2022-08-08T12:06:42.859Z,102318.09
2022-08-08T12:09:17.378Z,102325.53
2022-08-08T12:11:49.602Z,102316.69
2022-08-08T12:14:23.983Z,102318.09
2022-08-08T12:16:57.690Z,102321.84
2022-08-08T12:19:37.995Z,102313.41
2022-08-08T12:22:21.096Z,102309.06
2022-08-08T12:24:51.257Z,102315.81
2022-08-08T12:27:22.354Z,102304.88
2022-08-08T12:29:57.578Z,102314.56
2022-08-08T12:32:25.676Z,102308.34
2022-08-08T12:35:13.394Z,102319.44
2022-08-08T12:38:02.255Z,102319.72
2022-08-08T12:40:54.399Z,102317.88
2022-08-08T12:43:47.511Z,102310.44
2022-08-08T12:46:26.429Z,102311.22
2022-08-08T12:49:22.149Z,102320.47
2022-08-08T12:51:49.971Z,102322.41
2022-08-08T12:54:29.206Z,102325.78
2022-08-08T12:56:57.403Z,102319.00
2022-08-08T12:59:45.021Z,102321.00
2022-08-08T13:02:28.628Z,102320.75
2022-08-08T13:04:59.437Z,102321.66
2022-08-08T13:08:03.487Z,102324.63
2022-08-08T13:10:36.269Z,102319.84
2022-08-08T13:13:08.031Z,102315.84
2022-08-08T13:15:37.474Z,102319.91
2022-08-08T13:18:11.715Z,102313.97
2022-08-08T13:20:48.217Z,102325.50
2022-08-08T13:23:36.524Z,102321.56
2022-08-08T13:26:14.649Z,102334.13
2022-08-08T13:28:45.959Z,102323.75
2022-08-08T13:31:17.563Z,102324.03
2022-08-08T13:33:50.161Z,102331.53
2022-08-08T13:36:26.035Z,102341.50
2022-08-08T13:38:54.843Z,102344.31
2022-08-08T13:41:37.786Z,102337.47
2022-08-08T13:44:11.068Z,102337.47
2022-08-08T13:46:39.473Z,102339.13
2022-08-08T13:50:34.978Z,102347.00
2022-08-08T13:52:08.134Z,102351.31
2022-08-08T13:54:38.478Z,102346.59
2022-08-08T13:57:15.568Z,102342.19
2022-08-08T13:59:48.527Z,102345.00
2022-08-08T14:02:22.403Z,102341.03
2022-08-08T14:05:09.191Z,102345.94
2022-08-08T14:07:52.201Z,102344.97
2022-08-08T14:10:33.091Z,102349.16
2022-08-08T14:13:30.686Z,102356.03
2022-08-08T14:16:03.395Z,102351.13
2022-08-08T14:18:35.867Z,102345.63
2022-08-08T14:21:07.881Z,102346.34
2022-08-08T14:24:06.984Z,102350.69
2022-08-08T14:26:29.984Z,102345.41
2022-08-08T14:29:06.065Z,102357.78
2022-08-08T14:32:09.965Z,102354.41
2022-08-08T14:34:37.519Z,102362.72
2022-08-08T14:37:08.317Z,102363.56
2022-08-08T14:39:47.916Z,102354.47
2022-08-08T14:42:17.213Z,102363.84
2022-08-08T14:44:57.403Z,102360.63
2022-08-08T14:47:36.137Z,102372.31
2022-08-08T14:50:16.134Z,102364.72
2022-08-08T14:52:58.056Z,102363.44
2022-08-08T14:55:41.093Z,102362.88
2022-08-08T14:58:16.039Z,102368.91
2022-08-08T15:00:47.856Z,102359.06
2022-08-08T15:03:17.501Z,102354.63
2022-08-08T15:05:52.346Z,102362.78
2022-08-08T15:08:34.807Z,102363.47
2022-08-08T15:11:09.045Z,102363.78
2022-08-08T15:13:41.066Z,102368.56
2022-08-08T15:16:27.841Z,102368.84
2022-08-08T15:18:56.033Z,102373.97
2022-08-08T15:21:27.640Z,102376.91
2022-08-08T15:23:58.174Z,102365.56
2022-08-08T15:26:29.294Z,102381.06
2022-08-08T15:28:57.766Z,102381.25
2022-08-08T15:32:03.212Z,102379.25
2022-08-08T15:34:29.003Z,102372.66
2022-08-08T15:37:02.262Z,102383.06
2022-08-08T15:39:38.523Z,102383.47
2022-08-08T15:42:13.286Z,102382.06
2022-08-08T15:44:46.494Z,102386.38
2022-08-08T15:47:19.122Z,102379.25
2022-08-08T15:49:48.631Z,102382.59
2022-08-08T15:52:18.044Z,102387.78
2022-08-08T15:54:51.857Z,102390.59
2022-08-08T15:57:21.258Z,102394.25
2022-08-08T16:00:05.426Z,102392.28
2022-08-08T16:02:50.577Z,102389.78
2022-08-08T16:05:21.549Z,102394.81
2022-08-08T16:07:53.855Z,102392.97
2022-08-08T16:13:10.007Z,102390.44
2022-08-08T16:13:30.357Z,102393.81
2022-08-08T16:16:08.967Z,102393.69
2022-08-08T16:18:41.674Z,102401.69
2022-08-08T16:21:26.022Z,102397.34
2022-08-08T16:23:55.557Z,102399.59
2022-08-08T16:26:32.742Z,102399.59
2022-08-08T16:29:02.204Z,102401.44
2022-08-08T16:31:31.408Z,102396.53
2022-08-08T16:34:01.587Z,102399.34
2022-08-08T16:36:33.425Z,102398.22
2022-08-08T16:39:09.970Z,102397.09
2022-08-08T16:41:51.253Z,102393.31
2022-08-08T16:44:28.135Z,102393.88
2022-08-08T16:47:16.725Z,102391.63
2022-08-08T16:49:47.846Z,102395.44
2022-08-08T16:55:03.012Z,102396.53
2022-08-08T16:55:25.054Z,102395.13
2022-08-08T16:58:14.659Z,102400.59
2022-08-08T17:00:48.739Z,102404.13
2022-08-08T17:03:25.463Z,102402.13
2022-08-08T17:06:39.716Z,102400.47
2022-08-08T17:08:57.481Z,102407.47
2022-08-08T17:11:28.421Z,102410.13
2022-08-08T17:14:18.866Z,102414.66
2022-08-08T17:16:51.747Z,102412.25
2022-08-08T17:19:25.867Z,102406.91
2022-08-08T17:21:56.064Z,102406.66
2022-08-08T17:24:27.839Z,102406.78
2022-08-08T17:26:58.679Z,102406.06
2022-08-08T17:29:27.153Z,102416.00
2022-08-08T17:31:55.111Z,102411.81
2022-08-08T17:34:54.038Z,102414.63
2022-08-08T17:37:15.385Z,102412.81
2022-08-08T17:40:06.003Z,102415.75
2022-08-08T17:42:35.488Z,102416.44
2022-08-08T17:45:03.954Z,102416.56
2022-08-08T17:47:40.321Z,102421.31
2022-08-08T17:50:10.098Z,102426.91
2022-08-08T17:52:43.230Z,102425.47
2022-08-08T17:56:05.792Z,102420.56
2022-08-08T17:57:59.783Z,102422.09
2022-08-08T18:00:31.827Z,102422.63
2022-08-08T18:03:07.405Z,102430.75
2022-08-08T18:05:49.864Z,102429.31
2022-08-08T18:08:25.077Z,102436.03
2022-08-08T18:11:07.842Z,102442.75
2022-08-08T18:15:48.635Z,102444.22
2022-08-08T18:18:31.642Z,102449.06
2022-08-08T18:21:10.366Z,102456.63
2022-08-08T18:23:38.954Z,102460.34
2022-08-08T18:26:08.042Z,102463.00
2022-08-08T18:28:55.039Z,102470.00
2022-08-08T18:31:25.051Z,102461.56
2022-08-08T18:34:26.084Z,102458.44
2022-08-08T18:36:44.458Z,102466.53
2022-08-08T18:39:16.389Z,102474.66
2022-08-08T18:41:58.257Z,102478.56
2022-08-08T18:44:29.322Z,102478.09
2022-08-08T18:47:02.670Z,102474.00
2022-08-08T18:49:32.555Z,102483.44
2022-08-08T18:52:18.125Z,102480.59
2022-08-08T18:55:00.559Z,102492.69
2022-08-08T18:57:41.480Z,102494.19
2022-08-08T19:00:16.922Z,102489.63
2022-08-08T19:02:55.428Z,102494.00
2022-08-08T19:05:30.715Z,102496.44
2022-08-08T19:08:04.177Z,102498.38
2022-08-08T19:10:32.200Z,102502.38
2022-08-08T19:13:03.120Z,102518.75
2022-08-08T19:15:34.139Z,102515.78
2022-08-08T19:18:32.158Z,102514.81
2022-08-08T19:20:59.148Z,102519.16
2022-08-08T19:23:27.607Z,102515.44
2022-08-08T19:26:28.401Z,102517.81
2022-08-08T19:28:44.563Z,102532.56
2022-08-08T19:31:13.093Z,102534.72
2022-08-08T19:34:04.083Z,102532.78
2022-08-08T19:36:35.263Z,102539.88
2022-08-08T19:39:03.209Z,102536.13
2022-08-08T19:41:33.977Z,102540.19
2022-08-08T19:44:12.620Z,102534.72
2022-08-08T19:46:41.281Z,102540.94
2022-08-08T19:49:10.614Z,102540.81
2022-08-08T19:51:39.613Z,102546.44
2022-08-08T19:54:11.461Z,102548.59
2022-08-08T19:56:41.516Z,102552.66
2022-08-08T19:59:18.803Z,102547.50
2022-08-08T20:02:03.527Z,102554.66
2022-08-08T20:04:35.022Z,102551.94
2022-08-08T20:07:05.423Z,102555.97
2022-08-08T20:09:56.641Z,102558.53
2022-08-08T20:12:32.841Z,102565.09
2022-08-08T20:15:10.389Z,102566.72
2022-08-08T20:17:43.174Z,102566.41
2022-08-08T20:20:19.212Z,102577.41
2022-08-08T20:22:54.226Z,102577.94
2022-08-08T20:25:26.570Z,102580.63
2022-08-08T20:28:01.019Z,102582.81
2022-08-08T20:30:52.542Z,102587.06
2022-08-08T20:35:56.784Z,102588.19
2022-08-08T20:38:29.135Z,102587.72
2022-08-08T20:41:05.591Z,102591.22
2022-08-08T20:43:43.732Z,102592.25
2022-08-08T20:46:16.539Z,102585.47
2022-08-08T20:48:45.376Z,102601.53
2022-08-08T20:51:14.994Z,102595.78
2022-08-08T20:53:59.262Z,102604.13
2022-08-08T20:56:35.723Z,102601.97
2022-08-08T20:59:08.829Z,102599.53
2022-08-08T21:02:05.617Z,102606.19
2022-08-08T21:04:27.566Z,102599.50
2022-08-08T21:07:00.285Z,102612.03
2022-08-08T21:09:31.713Z,102613.28
2022-08-08T21:12:16.528Z,102614.25
2022-08-08T21:14:49.230Z,102610.75
2022-08-08T21:17:17.323Z,102616.44
2022-08-08T21:19:47.549Z,102621.03
2022-08-08T21:22:16.872Z,102619.75
2022-08-08T21:24:53.526Z,102611.25
2022-08-08T21:28:05.588Z,102617.78
2022-08-08T21:30:19.431Z,102613.81
2022-08-08T21:32:53.197Z,102628.88
2022-08-08T21:36:16.874Z,102624.84
2022-08-08T21:38:16.987Z,102629.44
2022-08-08T21:40:56.315Z,102631.25
2022-08-08T21:43:25.793Z,102634.00
2022-08-08T21:48:04.360Z,102631.63
2022-08-08T21:48:51.817Z,102637.81
2022-08-08T21:54:31.568Z,102639.53
2022-08-08T21:54:35.079Z,102639.06
2022-08-08T21:57:00.199Z,102638.13
2022-08-08T22:00:01.396Z,102638.66
2022-08-08T22:02:19.450Z,102640.53
2022-08-08T22:04:51.096Z,102645.06
2022-08-08T22:07:19.521Z,102646.25
2022-08-08T22:09:49.627Z,102647.31
2022-08-08T22:12:17.552Z,102646.81
2022-08-08T22:14:47.308Z,102649.06
2022-08-08T22:17:19.130Z,102648.84
2022-08-08T22:20:10.515Z,102651.91
2022-08-08T22:22:36.115Z,102650.59
2022-08-08T22:25:12.485Z,102656.88
2022-08-08T22:28:03.657Z,102657.06
2022-08-08T22:30:42.258Z,102657.31
2022-08-08T22:34:10.933Z,102662.84
2022-08-08T22:36:04.365Z,102665.81
2022-08-08T22:38:48.899Z,102671.50
2022-08-08T22:41:21.056Z,102668.09
2022-08-08T22:44:01.202Z,102673.44
2022-08-08T22:46:33.042Z,102677.38
2022-08-08T22:49:01.185Z,102674.13
2022-08-08T22:51:35.056Z,102673.38
2022-08-08T22:54:30.569Z,102679.81
2022-08-08T22:57:11.474Z,102674.06
2022-08-08T22:59:48.553Z,102677.69
2022-08-08T23:02:28.811Z,102675.31
2022-08-08T23:04:57.640Z,102686.88
2022-08-08T23:07:49.251Z,102681.69
2022-08-08T23:10:19.525Z,102683.03
2022-08-08T23:12:51.827Z,102681.22
2022-08-08T23:16:37.611Z,102682.78
2022-08-08T23:18:11.832Z,102685.75
2022-08-08T23:20:40.944Z,102684.97
2022-08-08T23:23:12.176Z,102687.94
2022-08-08T23:25:48.576Z,102698.53
2022-08-08T23:28:20.912Z,102689.03
2022-08-08T23:30:52.000Z,102694.63
2022-08-08T23:33:35.744Z,102697.56
2022-08-08T23:36:09.307Z,102696.03
2022-08-08T23:38:44.151Z,102694.31
2022-08-08T23:41:22.761Z,102699.00
2022-08-08T23:43:56.647Z,102692.50
2022-08-08T23:49:01.450Z,102702.19
2022-08-08T23:49:14.210Z,102692.72
2022-08-08T23:52:06.234Z,102700.63
2022-08-08T23:54:42.399Z,102702.72
2022-08-08T23:57:27.659Z,102708.94
